Terminal Aerodrome Forecast
Issued by NWS

Home | Current Version | Previous Version | Text Only | Print | Product List | Glossary On
Versions: 1 2 3 4 5 6 7 8 9 10 11 12 13 14 15 16 17 18 19 20 21 22 23 24 25 26 27 28 29 30 31 32 33 34 35 36 37 38 39 40 41 42 43 44 45 46 47 48 49 50
269
FTUS45 KBOU 260847 AAB
TAFBJC
TAF AMD
KBJC 260847Z 2609/2706 VRB03KT P6SM BKN015 OVC060
     FM261100 VRB03KT P6SM SCT020 BKN060
     FM261300 24004KT P6SM SCT250
     FM261800 31008KT P6SM SCT090 SCT220
     FM262100 31011KT P6SM SCT090 BKN200
     FM270000 30007KT P6SM BKN080 BKN150
     FM270300 VRB03KT P6SM BKN080 BKN150=

USA.gov is the U.S. government's official web portal to all federal, state and local government web resources and services.